Time;durP1;ratioP1;P1;durP2;ratioP2;P2;SDS_P1;SDS_P2;PMS_P1;PMS_P2;Temp;Humidity;BMP_temperature;BMP_pressure;BME280_temperature;BME280_humidity;BME280_pressure;Samples;Min_cycle;Max_cycle;Signal;HPM_P1;HPM_P2
2021/01/27 00:00:39;;;;;;;14.82;8.43;;;0.70;99.90;;;;;;5079110;28;20059;-52
2021/01/27 00:03:05;;;;;;;17.15;8.73;;;0.70;99.90;;;;;;5079534;28;20441;-56
2021/01/27 00:05:37;;;;;;;14.07;8.60;;;0.60;99.90;;;;;;5080087;28;20044;-52
2021/01/27 00:08:03;;;;;;;17.85;8.50;;;0.60;99.90;;;;;;5078867;28;20097;-55
2021/01/27 00:10:30;;;;;;;14.13;7.75;;;0.60;99.90;;;;;;5072285;28;20428;-54
2021/01/27 00:12:56;;;;;;;14.95;8.05;;;0.60;99.90;;;;;;5079862;28;20052;-50
2021/01/27 00:15:35;;;;;;;13.25;7.38;;;0.60;99.90;;;;;;5068716;28;20120;-51
2021/01/27 00:18:01;;;;;;;11.93;7.18;;;0.60;99.90;;;;;;5065610;28;20575;-56
2021/01/27 00:20:28;;;;;;;14.88;6.68;;;0.60;99.90;;;;;;5065097;28;20042;-54
2021/01/27 00:22:55;;;;;;;14.45;8.02;;;0.60;99.90;;;;;;5066028;28;20037;-53
2021/01/27 00:25:24;;;;;;;16.02;8.18;;;0.50;99.90;;;;;;5065232;28;20045;-56
2021/01/27 00:27:50;;;;;;;13.55;7.47;;;0.40;99.90;;;;;;5065689;28;20037;-56
2021/01/27 00:30:24;;;;;;;12.48;7.88;;;0.40;99.90;;;;;;5080534;28;20062;-55
2021/01/27 00:32:50;;;;;;;15.82;7.10;;;0.50;99.90;;;;;;5065139;28;20040;-54
2021/01/27 00:35:19;;;;;;;20.42;7.68;;;0.50;99.90;;;;;;5066134;28;20055;-57
2021/01/27 00:37:44;;;;;;;12.52;7.78;;;0.50;99.90;;;;;;5064493;28;20033;-57
2021/01/27 00:40:10;;;;;;;16.42;8.02;;;0.50;99.90;;;;;;5065544;28;20025;-54
2021/01/27 00:42:36;;;;;;;14.65;7.10;;;0.60;99.90;;;;;;5065366;28;20505;-57
2021/01/27 00:45:04;;;;;;;16.05;7.53;;;0.60;99.90;;;;;;5065678;28;20412;-52
2021/01/27 00:47:29;;;;;;;14.48;7.28;;;0.60;99.90;;;;;;5065326;28;20033;-55
2021/01/27 00:49:55;;;;;;;12.63;7.25;;;0.60;99.90;;;;;;5064430;28;20127;-58
2021/01/27 00:52:20;;;;;;;11.68;6.28;;;0.60;99.90;;;;;;5065350;28;20092;-57
2021/01/27 00:54:46;;;;;;;14.10;6.97;;;0.60;99.90;;;;;;5065061;28;20041;-57
2021/01/27 00:57:11;;;;;;;10.02;6.60;;;0.60;99.90;;;;;;5065373;28;20120;-57
2021/01/27 00:59:37;;;;;;;12.43;6.18;;;0.60;99.90;;;;;;5064823;28;20119;-57
2021/01/27 01:02:02;;;;;;;12.75;7.35;;;0.60;99.90;;;;;;5064048;28;20040;-55
2021/01/27 01:04:28;;;;;;;13.27;7.03;;;0.60;99.90;;;;;;5065556;28;20072;-52
2021/01/27 01:06:55;;;;;;;14.27;7.43;;;0.60;99.90;;;;;;5065121;28;20484;-58
2021/01/27 01:09:20;;;;;;;13.70;7.63;;;0.50;99.90;;;;;;5065178;28;20032;-55
2021/01/27 01:11:46;;;;;;;14.20;7.05;;;0.50;99.90;;;;;;5065121;28;20524;-55
2021/01/27 01:14:12;;;;;;;14.90;7.65;;;0.60;99.90;;;;;;5056608;28;20116;-56
2021/01/27 01:16:38;;;;;;;16.40;8.57;;;0.60;99.90;;;;;;5064769;28;20063;-52
2021/01/27 01:19:06;;;;;;;15.82;7.53;;;0.50;99.90;;;;;;5064715;28;20072;-53
2021/01/27 01:21:32;;;;;;;17.05;7.85;;;0.50;99.90;;;;;;5064549;28;20052;-55
2021/01/27 01:23:57;;;;;;;13.40;7.05;;;0.50;99.90;;;;;;5063996;28;20033;-59
2021/01/27 01:26:23;;;;;;;15.48;6.90;;;0.50;99.90;;;;;;5063868;28;20044;-59
2021/01/27 01:28:48;;;;;;;13.85;7.88;;;0.50;99.90;;;;;;5056126;28;20028;-56
2021/01/27 01:31:14;;;;;;;16.23;7.20;;;0.50;99.90;;;;;;5063164;28;20127;-52
2021/01/27 01:33:39;;;;;;;15.27;6.68;;;0.40;99.90;;;;;;5060160;28;20040;-56
2021/01/27 01:36:05;;;;;;;10.38;7.03;;;0.40;99.90;;;;;;5064782;28;20109;-54
2021/01/27 01:38:30;;;;;;;12.80;6.60;;;0.50;99.90;;;;;;5064080;28;20037;-56
2021/01/27 01:40:59;;;;;;;15.57;6.38;;;0.50;99.90;;;;;;5079211;28;20059;-54
2021/01/27 01:43:43;;;;;;;9.75;6.32;;;0.50;99.90;;;;;;5064499;28;20079;-54
2021/01/27 01:46:20;;;;;;;8.73;5.80;;;0.50;99.90;;;;;;5056376;28;20056;-57
2021/01/27 01:48:53;;;;;;;9.18;5.68;;;0.50;99.90;;;;;;5063910;28;20044;-57
2021/01/27 01:51:40;;;;;;;13.73;6.00;;;0.50;99.90;;;;;;5057318;28;20029;-55
2021/01/27 01:54:25;;;;;;;10.55;5.13;;;0.40;99.90;;;;;;5063796;28;20294;-56
2021/01/27 01:56:57;;;;;;;10.73;4.57;;;0.50;99.90;;;;;;5063734;28;20041;-57
2021/01/27 01:59:23;;;;;;;10.57;4.70;;;0.50;99.90;;;;;;5063847;28;20037;-56
2021/01/27 02:01:57;;;;;;;7.18;3.20;;;0.50;99.90;;;;;;5062946;28;20585;-53
2021/01/27 02:04:26;;;;;;;7.13;3.50;;;0.50;99.90;;;;;;5061682;28;20500;-58
2021/01/27 02:06:51;;;;;;;7.30;4.03;;;0.50;99.90;;;;;;5064030;28;20032;-58
2021/01/27 02:09:17;;;;;;;8.57;3.45;;;0.40;99.90;;;;;;5063803;28;20044;-54
2021/01/27 02:12:00;;;;;;;6.10;3.17;;;0.50;99.90;;;;;;5064340;28;20039;-58
2021/01/27 02:14:40;;;;;;;7.60;3.80;;;0.40;99.90;;;;;;5063302;28;20070;-56
2021/01/27 02:17:33;;;;;;;5.18;2.25;;;0.50;99.90;;;;;;5062788;28;20625;-55
2021/01/27 02:20:23;;;;;;;5.65;2.03;;;0.40;99.90;;;;;;5058209;28;20518;-54
2021/01/27 02:23:07;;;;;;;5.80;2.33;;;0.40;99.90;;;;;;5057302;28;20048;-52
2021/01/27 02:25:38;;;;;;;3.17;2.10;;;0.40;99.90;;;;;;5061224;28;20036;-57
2021/01/27 02:28:08;;;;;;;3.00;2.08;;;0.30;99.90;;;;;;5063347;28;20583;-54
2021/01/27 02:30:51;;;;;;;2.67;1.65;;;0.30;99.90;;;;;;5060578;28;20037;-54
2021/01/27 02:33:55;;;;;;;3.67;1.95;;;0.30;99.90;;;;;;5063463;28;20128;-56
2021/01/27 02:36:31;;;;;;;7.45;2.00;;;0.20;99.90;;;;;;5061347;28;20048;-52
2021/01/27 02:39:22;;;;;;;4.95;2.22;;;0.20;99.90;;;;;;5062185;28;20063;-52
2021/01/27 02:42:04;;;;;;;9.73;3.08;;;0.10;99.90;;;;;;5062305;28;20135;-55
2021/01/27 02:44:44;;;;;;;6.50;2.33;;;0.10;99.90;;;;;;5062785;28;20124;-54
2021/01/27 02:47:21;;;;;;;3.55;1.88;;;0.10;99.90;;;;;;5054901;28;20134;-54
2021/01/27 02:49:53;;;;;;;2.80;1.83;;;0.10;99.90;;;;;;5062375;28;20071;-51
2021/01/27 02:52:31;;;;;;;4.07;1.92;;;0.00;99.90;;;;;;5056063;28;20037;-56
2021/01/27 02:55:07;;;;;;;5.70;1.80;;;0.00;99.90;;;;;;5061230;28;20036;-56
2021/01/27 02:57:42;;;;;;;2.75;2.20;;;0.00;99.90;;;;;;5063356;28;20051;-55
2021/01/27 03:00:20;;;;;;;3.55;1.90;;;0.00;99.90;;;;;;5062268;28;20634;-55
2021/01/27 03:03:03;;;;;;;5.78;2.42;;;0.00;99.90;;;;;;5063031;28;20580;-54
2021/01/27 03:05:41;;;;;;;4.55;2.60;;;0.00;99.90;;;;;;5057158;28;20037;-51
2021/01/27 03:08:21;;;;;;;5.35;2.50;;;0.00;99.90;;;;;;5062542;28;20051;-54
2021/01/27 03:11:11;;;;;;;4.80;2.65;;;-0.10;99.90;;;;;;5059253;28;20040;-54
2021/01/27 03:13:39;;;;;;;9.70;2.45;;;-0.10;99.90;;;;;;5056216;28;20075;-54
2021/01/27 03:16:23;;;;;;;5.88;2.90;;;-0.10;99.90;;;;;;5062301;28;20118;-53
2021/01/27 03:19:01;;;;;;;3.95;2.55;;;-0.10;99.90;;;;;;5063220;28;20453;-50
2021/01/27 03:21:33;;;;;;;4.65;2.92;;;-0.20;99.90;;;;;;5063068;28;20043;-53
2021/01/27 03:24:04;;;;;;;4.72;2.92;;;-0.20;99.90;;;;;;5063442;28;20115;-56
2021/01/27 03:26:59;;;;;;;6.82;3.35;;;-0.20;99.90;;;;;;5062799;28;20041;-56
2021/01/27 03:29:41;;;;;;;5.88;3.17;;;-0.20;99.90;;;;;;5062484;28;20094;-56
2021/01/27 03:32:14;;;;;;;7.25;3.78;;;-0.20;99.90;;;;;;5057334;28;20039;-54
2021/01/27 03:34:44;;;;;;;8.15;3.42;;;-0.20;99.90;;;;;;5063542;28;20046;-54
2021/01/27 03:37:20;;;;;;;7.43;3.25;;;-0.20;99.90;;;;;;5060073;28;20040;-55
2021/01/27 03:39:51;;;;;;;7.03;3.15;;;-0.20;99.90;;;;;;5062476;28;20133;-52
2021/01/27 03:42:27;;;;;;;9.57;3.58;;;-0.30;99.90;;;;;;5063093;28;20048;-54
2021/01/27 03:44:57;;;;;;;5.28;2.92;;;-0.30;99.90;;;;;;5062728;28;20041;-53
2021/01/27 03:47:32;;;;;;;5.55;3.42;;;-0.40;99.90;;;;;;5061850;28;20048;-56
2021/01/27 03:50:07;;;;;;;6.28;3.38;;;-0.40;99.90;;;;;;5062636;28;20040;-55
2021/01/27 03:52:48;;;;;;;6.80;3.92;;;-0.40;99.90;;;;;;5062634;28;20032;-54
2021/01/27 03:55:36;;;;;;;6.55;3.50;;;-0.50;99.90;;;;;;5056367;28;20098;-57
2021/01/27 03:58:30;;;;;;;8.25;3.25;;;-0.40;99.90;;;;;;5065387;28;20147;-53
2021/01/27 04:01:04;;;;;;;10.60;3.53;;;-0.40;99.90;;;;;;5065511;28;20071;-55
2021/01/27 04:03:30;;;;;;;5.88;3.08;;;-0.40;99.90;;;;;;5066635;28;20065;-57
2021/01/27 04:05:55;;;;;;;7.22;3.50;;;-0.40;99.90;;;;;;5065697;28;20667;-57
2021/01/27 04:08:21;;;;;;;5.93;3.28;;;-0.40;99.90;;;;;;5066190;28;20044;-52
2021/01/27 04:10:46;;;;;;;6.35;3.55;;;-0.30;99.90;;;;;;5066202;28;20504;-56
2021/01/27 04:13:12;;;;;;;4.35;2.92;;;-0.30;99.90;;;;;;5065611;28;20120;-55
2021/01/27 04:15:37;;;;;;;6.80;4.05;;;-0.30;99.90;;;;;;5065996;28;20162;-51
2021/01/27 04:18:03;;;;;;;11.98;4.88;;;-0.30;99.90;;;;;;5065197;28;20440;-56
2021/01/27 04:20:29;;;;;;;9.77;4.80;;;-0.30;99.90;;;;;;5065923;28;20037;-57
2021/01/27 04:22:55;;;;;;;8.85;5.00;;;-0.40;99.90;;;;;;5066521;28;20056;-54
2021/01/27 04:25:20;;;;;;;8.95;4.53;;;-0.40;99.90;;;;;;5066267;28;20047;-54
2021/01/27 04:27:46;;;;;;;11.18;5.00;;;-0.40;99.90;;;;;;5066348;28;20048;-53
2021/01/27 04:30:17;;;;;;;6.90;4.68;;;-0.40;99.90;;;;;;5064958;28;20033;-56
2021/01/27 04:32:42;;;;;;;10.15;4.90;;;-0.40;99.90;;;;;;5066716;28;20118;-53
2021/01/27 04:35:09;;;;;;;7.70;4.85;;;-0.40;99.90;;;;;;5066298;28;20040;-56
2021/01/27 04:37:35;;;;;;;8.43;4.75;;;-0.50;99.90;;;;;;5065607;28;20602;-57
2021/01/27 04:40:01;;;;;;;10.25;5.18;;;-0.50;99.90;;;;;;5066080;28;20127;-56
2021/01/27 04:42:28;;;;;;;12.07;6.25;;;-0.60;99.90;;;;;;5063724;28;20067;-56
2021/01/27 04:44:56;;;;;;;6.70;4.63;;;-0.50;99.90;;;;;;5066658;28;20037;-57
2021/01/27 04:47:55;;;;;;;9.10;5.20;;;-0.50;99.90;;;;;;5063707;28;20056;-54
2021/01/27 04:50:31;;;;;;;11.80;6.47;;;-0.50;99.90;;;;;;5063436;28;20044;-53
2021/01/27 04:53:29;;;;;;;12.27;5.40;;;-0.50;99.90;;;;;;5065713;28;20043;-54
2021/01/27 04:56:43;;;;;;;10.02;5.00;;;-0.50;99.90;;;;;;5059707;28;20056;-55
2021/01/27 04:59:28;;;;;;;14.45;6.22;;;-0.40;99.90;;;;;;5065706;28;20076;-53
2021/01/27 05:02:25;;;;;;;8.38;5.20;;;-0.50;99.90;;;;;;5058832;28;20207;-54
2021/01/27 05:05:16;;;;;;;10.50;5.25;;;-0.50;99.90;;;;;;5073726;28;20101;-56
2021/01/27 05:07:56;;;;;;;18.77;6.20;;;-0.50;99.90;;;;;;5064664;28;20048;-53
2021/01/27 05:10:26;;;;;;;10.60;5.28;;;-0.50;99.90;;;;;;5064355;28;20052;-54
2021/01/27 05:12:55;;;;;;;11.63;5.65;;;-0.50;99.90;;;;;;5061209;28;20059;-52
2021/01/27 05:15:23;;;;;;;12.00;5.65;;;-0.50;99.90;;;;;;5064445;28;20119;-54
2021/01/27 05:17:50;;;;;;;14.77;5.68;;;-0.50;99.90;;;;;;5065209;28;20044;-55
2021/01/27 05:20:18;;;;;;;10.55;5.45;;;-0.50;99.90;;;;;;5064408;28;20032;-56
2021/01/27 05:22:44;;;;;;;12.45;5.10;;;-0.50;99.90;;;;;;5063573;28;20139;-54
2021/01/27 05:25:31;;;;;;;11.45;5.22;;;-0.60;99.90;;;;;;5064614;28;20115;-51
2021/01/27 05:27:58;;;;;;;10.50;4.93;;;-0.50;99.90;;;;;;5064811;28;20036;-54
2021/01/27 05:30:46;;;;;;;12.68;5.53;;;-0.60;99.90;;;;;;5064064;28;20044;-54
2021/01/27 05:33:12;;;;;;;7.93;4.93;;;-0.50;99.90;;;;;;5057017;28;20044;-51
2021/01/27 05:35:38;;;;;;;7.72;4.40;;;-0.60;99.90;;;;;;5064174;28;20045;-54
2021/01/27 05:38:26;;;;;;;7.22;4.32;;;-0.60;99.90;;;;;;5063054;28;20068;-52
2021/01/27 05:41:12;;;;;;;7.65;4.18;;;-0.50;99.90;;;;;;5063759;28;20025;-54
2021/01/27 05:43:37;;;;;;;8.27;4.10;;;-0.50;99.90;;;;;;5054969;28;20048;-57
2021/01/27 05:46:28;;;;;;;7.40;4.30;;;-0.50;99.90;;;;;;5064858;28;20032;-57
2021/01/27 05:48:54;;;;;;;6.13;3.33;;;-0.50;99.90;;;;;;5065422;28;20478;-57
2021/01/27 05:51:35;;;;;;;9.55;3.38;;;-0.50;99.90;;;;;;5065446;28;20037;-55
2021/01/27 05:54:21;;;;;;;6.35;3.65;;;-0.50;99.90;;;;;;5064747;28;20051;-56
2021/01/27 05:56:47;;;;;;;7.72;3.85;;;-0.50;99.90;;;;;;5064422;28;20103;-56
2021/01/27 05:59:24;;;;;;;4.95;2.90;;;-0.50;99.90;;;;;;5064021;28;20036;-56
2021/01/27 06:01:51;;;;;;;8.23;3.50;;;-0.50;99.90;;;;;;5064214;28;20035;-55
2021/01/27 06:04:25;;;;;;;5.63;3.05;;;-0.40;99.90;;;;;;5064389;28;20044;-57
2021/01/27 06:06:51;;;;;;;5.53;3.25;;;-0.50;99.90;;;;;;5065120;28;20711;-55
2021/01/27 06:09:28;;;;;;;10.02;3.50;;;-0.40;99.90;;;;;;5063814;28;20032;-56
2021/01/27 06:12:04;;;;;;;8.52;3.45;;;-0.40;99.90;;;;;;5063907;28;20620;-56
2021/01/27 06:14:29;;;;;;;5.55;3.13;;;-0.40;99.90;;;;;;5057617;28;20067;-56
2021/01/27 06:16:55;;;;;;;7.00;2.80;;;-0.40;99.90;;;;;;5063157;28;20041;-57
2021/01/27 06:19:23;;;;;;;5.30;2.90;;;-0.40;99.90;;;;;;5063435;28;20076;-55
2021/01/27 06:22:12;;;;;;;3.92;2.38;;;-0.50;99.90;;;;;;5063800;28;20078;-55
2021/01/27 06:24:40;;;;;;;5.75;2.80;;;-0.40;99.90;;;;;;5056940;28;20047;-57
2021/01/27 06:27:50;;;;;;;7.43;2.47;;;-0.40;99.90;;;;;;5064511;28;20147;-54
2021/01/27 06:30:23;;;;;;;7.95;2.83;;;-0.40;99.90;;;;;;5061510;28;20825;-52
2021/01/27 06:32:58;;;;;;;8.27;2.90;;;-0.40;99.90;;;;;;5063669;28;20037;-54
2021/01/27 06:35:46;;;;;;;4.93;2.95;;;-0.40;99.90;;;;;;5065787;28;20032;-55
2021/01/27 06:38:37;;;;;;;4.88;2.75;;;-0.40;99.90;;;;;;5064028;28;20052;-53
2021/01/27 06:41:14;;;;;;;4.07;2.55;;;-0.40;99.90;;;;;;5062692;28;20045;-54
2021/01/27 06:43:57;;;;;;;4.30;2.70;;;-0.40;99.90;;;;;;5064755;28;20151;-49
2021/01/27 06:47:12;;;;;;;5.75;2.83;;;-0.40;99.90;;;;;;5064075;28;20033;-53
2021/01/27 06:50:05;;;;;;;5.55;2.83;;;-0.30;99.90;;;;;;5062440;28;20096;-54
2021/01/27 06:53:12;;;;;;;5.00;2.85;;;-0.30;99.90;;;;;;5063662;28;20037;-53
2021/01/27 06:55:58;;;;;;;6.97;3.13;;;-0.20;99.90;;;;;;5064880;28;20052;-56
2021/01/27 06:58:42;;;;;;;;;;;-0.30;99.90;;;;;;5062409;28;20048;-57
2021/01/27 07:01:55;;;;;;;11.45;3.38;;;-0.30;99.90;;;;;;5055142;28;20416;-57
2021/01/27 07:04:39;;;;;;;7.40;3.78;;;-0.20;99.90;;;;;;5060470;28;20127;-57
2021/01/27 07:07:11;;;;;;;5.30;3.17;;;-0.30;99.90;;;;;;5060104;28;20044;-54
2021/01/27 07:10:07;;;;;;;5.05;3.10;;;-0.30;99.90;;;;;;5062993;28;20101;-56
2021/01/27 07:12:41;;;;;;;10.98;3.55;;;-0.20;99.90;;;;;;5060196;28;20523;-56
2021/01/27 07:15:28;;;;;;;9.05;3.83;;;-0.20;99.90;;;;;;5059042;28;20033;-55
2021/01/27 07:17:56;;;;;;;5.55;3.00;;;-0.20;99.90;;;;;;5088099;28;20384;-56
2021/01/27 07:20:35;;;;;;;6.15;3.13;;;-0.20;99.90;;;;;;5063701;28;20040;-53
2021/01/27 07:23:20;;;;;;;6.55;3.13;;;-0.30;99.90;;;;;;5064298;28;20044;-55
2021/01/27 07:25:56;;;;;;;6.20;3.60;;;-0.20;99.90;;;;;;5067348;28;20044;-58
2021/01/27 07:28:49;;;;;;;6.15;3.40;;;-0.20;99.90;;;;;;5069927;28;20045;-56
2021/01/27 07:31:35;;;;;;;9.88;3.22;;;-0.20;99.90;;;;;;5062300;28;20044;-57
2021/01/27 07:34:28;;;;;;;4.32;2.83;;;-0.10;99.90;;;;;;5069424;28;20175;-56
2021/01/27 07:37:21;;;;;;;8.52;3.45;;;-0.10;99.90;;;;;;5047150;28;20182;-62
2021/01/27 07:39:56;;;;;;;4.28;2.83;;;-0.10;99.90;;;;;;5066818;28;20035;-54
2021/01/27 07:42:46;;;;;;;7.85;2.95;;;0.00;99.90;;;;;;5068949;28;20908;-57
2021/01/27 07:45:21;;;;;;;4.97;2.47;;;0.10;99.90;;;;;;5052308;28;20080;-53
2021/01/27 07:48:04;;;;;;;4.03;2.58;;;0.00;99.90;;;;;;5066465;28;20529;-56
2021/01/27 07:50:31;;;;;;;4.15;2.53;;;0.00;99.90;;;;;;5060199;28;20032;-56
2021/01/27 07:53:20;;;;;;;10.23;3.95;;;0.00;99.90;;;;;;5061512;28;20044;-52
2021/01/27 07:55:58;;;;;;;5.43;2.55;;;0.10;99.90;;;;;;5067661;28;20846;-49
2021/01/27 07:58:47;;;;;;;5.50;2.20;;;0.00;99.90;;;;;;5066401;28;20044;-55
2021/01/27 08:01:21;;;;;;;4.50;2.05;;;0.00;99.90;;;;;;5058725;28;20060;-55
2021/01/27 08:04:00;;;;;;;3.92;2.20;;;0.00;99.90;;;;;;5065040;28;20051;-54
2021/01/27 08:06:28;;;;;;;3.95;1.67;;;0.00;99.90;;;;;;5066722;28;20127;-56
2021/01/27 08:09:03;;;;;;;2.72;1.73;;;0.10;99.90;;;;;;5065645;28;20043;-60
2021/01/27 08:11:39;;;;;;;3.97;2.00;;;0.10;99.90;;;;;;5065927;28;20561;-53
2021/01/27 08:14:07;;;;;;;4.72;1.88;;;0.20;99.90;;;;;;5066283;28;20048;-53
2021/01/27 08:16:38;;;;;;;4.30;1.90;;;0.20;99.90;;;;;;5065287;28;20090;-50
2021/01/27 08:19:13;;;;;;;3.10;1.70;;;0.20;99.90;;;;;;5065684;28;20037;-54
2021/01/27 08:21:44;;;;;;;6.82;1.80;;;0.30;99.90;;;;;;5066539;28;20044;-55
2021/01/27 08:24:36;;;;;;;3.63;1.70;;;0.30;99.90;;;;;;5059383;28;20312;-52
2021/01/27 08:27:11;;;;;;;4.05;1.27;;;0.40;99.90;;;;;;5066943;28;20041;-57
2021/01/27 08:30:02;;;;;;;3.58;1.55;;;0.40;99.90;;;;;;5067234;28;20044;-56
2021/01/27 08:32:37;;;;;;;1.92;1.25;;;0.50;99.90;;;;;;5032531;22;20049;-55
2021/01/27 08:35:09;;;;;;;2.08;1.50;;;0.50;99.90;;;;;;5018598;28;20125;-53
2021/01/27 08:37:40;;;;;;;3.13;1.50;;;0.50;99.90;;;;;;5021810;28;20037;-52
2021/01/27 08:40:21;;;;;;;2.80;1.58;;;0.40;99.90;;;;;;5010411;28;20116;-55
2021/01/27 08:42:51;;;;;;;3.70;1.42;;;0.40;99.90;;;;;;5026644;28;20046;-49
2021/01/27 08:45:27;;;;;;;3.80;1.85;;;0.40;99.90;;;;;;5025587;28;20045;-55
2021/01/27 08:47:55;;;;;;;3.53;1.70;;;0.40;99.90;;;;;;5039727;28;20055;-55
2021/01/27 08:50:42;;;;;;;2.10;1.60;;;0.50;99.90;;;;;;5034046;28;20049;-55
2021/01/27 08:53:29;;;;;;;2.38;1.40;;;0.50;99.90;;;;;;5026875;28;20041;-55
2021/01/27 08:55:58;;;;;;;25.05;7.20;;;0.50;99.90;;;;;;5009352;28;20042;-54
2021/01/27 08:58:29;;;;;;;6.03;3.63;;;0.60;99.90;;;;;;5025892;28;20508;-52
2021/01/27 09:00:59;;;;;;;4.07;1.80;;;0.60;99.90;;;;;;5026012;28;20708;-57
2021/01/27 09:03:37;;;;;;;1.95;1.40;;;0.60;99.90;;;;;;5027083;28;20420;-51
2021/01/27 09:06:04;;;;;;;3.42;1.30;;;0.50;99.90;;;;;;5025837;28;20121;-55
2021/01/27 09:08:32;;;;;;;2.00;1.30;;;0.50;99.90;;;;;;5026157;28;20518;-54
2021/01/27 09:11:03;;;;;;;2.53;1.65;;;0.50;99.90;;;;;;5026615;28;20048;-55
2021/01/27 09:13:44;;;;;;;4.28;1.75;;;0.60;99.90;;;;;;5026133;28;20041;-51
2021/01/27 09:16:25;;;;;;;8.10;4.43;;;0.40;99.90;;;;;;5022646;28;20069;-54
2021/01/27 09:18:56;;;;;;;3.47;2.20;;;0.40;99.90;;;;;;5040569;28;20045;-56
2021/01/27 09:21:23;;;;;;;6.55;2.88;;;0.50;99.90;;;;;;5026866;28;20099;-53
2021/01/27 09:23:59;;;;;;;8.55;4.45;;;0.50;99.90;;;;;;5026020;28;20042;-59
2021/01/27 09:26:36;;;;;;;;;;;0.60;99.90;;;;;;5026933;28;20129;-53
2021/01/27 09:29:19;;;;;;;10.18;6.03;;;0.70;99.90;;;;;;5026468;28;19920;-56
2021/01/27 09:31:45;;;;;;;7.28;4.07;;;0.80;99.90;;;;;;5017912;28;20029;-56
2021/01/27 09:34:23;;;;;;;17.33;10.73;;;0.80;99.90;;;;;;5026769;28;20406;-52
2021/01/27 09:37:00;;;;;;;8.00;4.38;;;0.80;99.90;;;;;;5019121;28;20087;-53
2021/01/27 09:39:29;;;;;;;24.73;14.48;;;0.70;99.90;;;;;;5025827;28;20128;-49
2021/01/27 09:41:57;;;;;;;24.40;13.60;;;0.80;99.90;;;;;;5026251;28;20421;-54
2021/01/27 09:44:35;;;;;;;12.95;7.70;;;0.90;99.90;;;;;;5026326;28;20046;-50
2021/01/27 09:47:12;;;;;;;3.65;2.45;;;0.90;99.90;;;;;;5024515;28;20049;-52
2021/01/27 09:49:45;;;;;;;4.70;2.60;;;0.70;99.90;;;;;;5025058;28;20041;-53
2021/01/27 09:52:12;;;;;;;12.15;6.93;;;0.60;99.90;;;;;;5025441;28;20419;-57
2021/01/27 09:54:41;;;;;;;12.18;7.55;;;0.90;99.90;;;;;;5025917;28;20087;-58
2021/01/27 09:57:11;;;;;;;6.00;2.97;;;1.00;99.90;;;;;;5025663;28;20048;-54
2021/01/27 09:59:38;;;;;;;3.92;2.67;;;1.00;99.90;;;;;;5025377;28;20128;-53
2021/01/27 10:02:04;;;;;;;4.20;2.10;;;1.10;99.90;;;;;;5023486;28;20052;-54
2021/01/27 10:04:37;;;;;;;2.75;1.80;;;1.20;99.90;;;;;;5023870;28;20081;-53
2021/01/27 10:07:29;;;;;;;4.00;2.08;;;1.30;99.90;;;;;;5025469;28;20077;-50
2021/01/27 10:10:06;;;;;;;4.43;1.95;;;1.30;99.90;;;;;;5026025;28;20041;-51
2021/01/27 10:12:33;;;;;;;2.53;1.70;;;1.30;99.90;;;;;;5021713;28;20068;-52
2021/01/27 10:15:08;;;;;;;12.43;7.85;;;1.30;99.90;;;;;;5026542;28;20033;-52
2021/01/27 10:17:34;;;;;;;8.40;5.55;;;1.30;99.90;;;;;;5003585;28;20034;-51
2021/01/27 10:20:07;;;;;;;5.50;3.03;;;1.30;99.90;;;;;;4994470;28;20037;-52
2021/01/27 10:22:38;;;;;;;5.85;3.88;;;1.30;99.90;;;;;;4985128;28;20101;-50
2021/01/27 10:25:35;;;;;;;4.70;2.97;;;1.40;99.90;;;;;;5001333;28;20037;-53
2021/01/27 10:28:20;;;;;;;4.27;2.43;;;1.60;99.90;;;;;;4986185;28;20038;-56
2021/01/27 10:30:46;;;;;;;4.90;3.00;;;1.40;99.90;;;;;;4985662;28;20058;-51
2021/01/27 10:33:31;;;;;;;10.55;6.35;;;1.40;99.90;;;;;;5015434;28;20143;-54
2021/01/27 10:35:58;;;;;;;5.68;3.70;;;1.50;99.90;;;;;;5004850;28;20096;-55
2021/01/27 10:38:24;;;;;;;4.80;2.85;;;1.60;99.90;;;;;;4990110;28;20050;-50
2021/01/27 10:41:09;;;;;;;4.20;2.63;;;1.60;99.90;;;;;;4985928;28;20712;-56
2021/01/27 10:43:34;;;;;;;3.85;2.38;;;1.60;99.90;;;;;;4987232;28;20041;-51
2021/01/27 10:46:00;;;;;;;6.03;2.63;;;1.70;99.90;;;;;;4986050;28;20038;-55
2021/01/27 10:48:29;;;;;;;8.45;5.38;;;1.90;99.90;;;;;;5000976;28;20038;-52
2021/01/27 10:51:01;;;;;;;8.50;4.13;;;1.90;99.90;;;;;;4993508;28;20049;-57
2021/01/27 10:53:29;;;;;;;9.82;4.97;;;1.90;99.90;;;;;;4986526;28;20752;-54
2021/01/27 10:55:55;;;;;;;4.25;2.60;;;1.90;99.90;;;;;;4995014;28;20046;-55
2021/01/27 10:58:22;;;;;;;5.55;3.65;;;2.00;99.90;;;;;;4985429;28;20039;-53
2021/01/27 11:00:49;;;;;;;4.03;2.40;;;1.90;99.90;;;;;;4986143;28;20371;-53
2021/01/27 11:03:14;;;;;;;3.72;2.47;;;2.00;99.90;;;;;;4998449;28;20042;-57
2021/01/27 11:05:40;;;;;;;4.20;2.20;;;1.90;99.90;;;;;;4985946;28;20176;-57
2021/01/27 11:08:11;;;;;;;22.25;12.32;;;1.80;99.90;;;;;;4985786;28;20035;-53
2021/01/27 11:10:36;;;;;;;15.20;8.38;;;1.90;99.90;;;;;;4990004;28;20512;-52
2021/01/27 11:13:02;;;;;;;19.48;11.63;;;2.10;99.90;;;;;;4986622;28;20027;-56
2021/01/27 11:15:28;;;;;;;18.20;10.63;;;2.20;99.90;;;;;;4983989;28;20047;-52
2021/01/27 11:17:53;;;;;;;13.73;5.38;;;2.30;99.90;;;;;;5001076;28;20513;-56
2021/01/27 11:20:23;;;;;;;9.35;5.55;;;2.10;99.90;;;;;;5004931;28;20073;-57
2021/01/27 11:22:52;;;;;;;5.90;3.20;;;2.10;99.90;;;;;;5000902;28;20131;-50
2021/01/27 11:25:21;;;;;;;9.50;4.80;;;2.10;99.90;;;;;;5001351;28;20375;-58
2021/01/27 11:27:48;;;;;;;5.60;3.30;;;2.00;99.90;;;;;;5002471;28;20149;-53
2021/01/27 11:30:16;;;;;;;3.00;1.80;;;1.90;99.90;;;;;;5004344;28;20069;-51
2021/01/27 11:32:41;;;;;;;6.22;2.80;;;1.90;99.90;;;;;;5004622;28;20723;-56
2021/01/27 11:35:08;;;;;;;2.97;1.85;;;1.90;99.90;;;;;;4997453;28;20034;-55
2021/01/27 11:37:34;;;;;;;2.20;1.60;;;2.00;99.90;;;;;;5004737;28;20045;-52
2021/01/27 11:39:59;;;;;;;3.38;2.00;;;2.10;99.90;;;;;;5000575;28;20037;-55
2021/01/27 11:42:25;;;;;;;2.92;1.60;;;2.10;99.90;;;;;;5003156;28;20034;-56
2021/01/27 11:44:50;;;;;;;3.78;2.42;;;2.20;99.90;;;;;;5004590;28;20046;-50
2021/01/27 11:47:16;;;;;;;5.38;3.45;;;2.20;99.90;;;;;;4996230;28;20038;-55
2021/01/27 11:49:44;;;;;;;7.38;4.20;;;2.20;99.90;;;;;;5004059;28;20060;-54
2021/01/27 11:52:11;;;;;;;6.70;3.95;;;2.30;99.90;;;;;;5002301;28;20050;-52
2021/01/27 11:54:40;;;;;;;7.55;3.35;;;2.30;99.90;;;;;;5004286;28;20053;-53
2021/01/27 11:57:06;;;;;;;3.13;2.22;;;2.20;99.90;;;;;;5004604;28;20493;-50
2021/01/27 11:59:32;;;;;;;4.93;2.33;;;2.20;99.90;;;;;;5000715;28;20093;-56
2021/01/27 12:01:59;;;;;;;3.67;2.20;;;2.30;99.90;;;;;;4984962;28;20050;-52
2021/01/27 12:04:25;;;;;;;3.15;2.28;;;2.20;99.90;;;;;;4992686;28;20054;-54
2021/01/27 12:06:50;;;;;;;2.72;1.67;;;2.20;99.90;;;;;;5000931;28;20038;-52
2021/01/27 12:09:16;;;;;;;4.85;2.88;;;2.10;99.90;;;;;;4986991;28;20053;-51
2021/01/27 12:11:42;;;;;;;2.85;2.00;;;2.20;99.90;;;;;;5007023;28;20048;-56
2021/01/27 12:14:08;;;;;;;2.72;1.67;;;2.20;99.90;;;;;;5007373;28;20046;-54
2021/01/27 12:16:34;;;;;;;3.83;1.90;;;2.20;99.90;;;;;;5007776;28;20134;-52
2021/01/27 12:18:59;;;;;;;4.47;2.28;;;2.10;99.90;;;;;;5006363;28;20545;-52
2021/01/27 12:21:25;;;;;;;3.65;2.05;;;2.10;99.90;;;;;;4995740;28;20047;-51
2021/01/27 12:23:50;;;;;;;3.35;1.40;;;2.20;99.90;;;;;;4989494;28;20034;-56
2021/01/27 12:26:16;;;;;;;8.38;1.42;;;2.20;99.90;;;;;;4988777;28;20062;-55
2021/01/27 12:28:41;;;;;;;2.03;1.10;;;2.20;99.90;;;;;;4987444;28;20040;-55
2021/01/27 12:31:07;;;;;;;1.83;1.13;;;2.20;99.90;;;;;;4986004;28;20042;-52
2021/01/27 12:33:33;;;;;;;4.07;1.17;;;2.20;99.90;;;;;;4993839;28;20064;-53
2021/01/27 12:35:58;;;;;;;2.08;1.25;;;2.20;99.90;;;;;;5006292;28;20117;-56
2021/01/27 12:38:24;;;;;;;1.33;0.93;;;2.20;99.90;;;;;;5006225;28;20037;-50
2021/01/27 12:40:50;;;;;;;3.17;1.20;;;2.20;99.90;;;;;;4993872;28;20042;-54
2021/01/27 12:43:15;;;;;;;2.47;1.05;;;2.30;99.90;;;;;;4989851;28;20039;-54
2021/01/27 12:45:42;;;;;;;4.93;1.60;;;2.30;99.90;;;;;;5006911;28;20041;-52
2021/01/27 12:48:08;;;;;;;3.10;1.63;;;2.30;99.90;;;;;;5021351;28;20046;-54
2021/01/27 12:50:33;;;;;;;2.50;1.40;;;2.30;99.90;;;;;;5006055;28;20404;-52
2021/01/27 12:52:59;;;;;;;1.98;1.08;;;2.20;99.90;;;;;;5007714;28;20045;-56
2021/01/27 12:55:24;;;;;;;1.83;0.85;;;2.20;99.90;;;;;;5007294;28;20042;-51
2021/01/27 12:57:50;;;;;;;1.17;0.73;;;2.20;99.90;;;;;;5006729;28;20041;-55
2021/01/27 13:00:20;;;;;;;2.00;1.35;;;2.20;99.90;;;;;;5006627;28;20401;-54
2021/01/27 13:02:47;;;;;;;1.35;0.75;;;2.20;99.90;;;;;;5003764;28;20034;-55
2021/01/27 13:05:14;;;;;;;1.27;0.90;;;2.20;99.90;;;;;;4987650;28;20034;-55
2021/01/27 13:07:40;;;;;;;1.17;0.90;;;2.20;99.90;;;;;;4998576;28;20034;-50
2021/01/27 13:10:08;;;;;;;1.23;0.77;;;2.30;99.90;;;;;;4990478;28;20522;-56
2021/01/27 13:12:35;;;;;;;2.42;1.13;;;2.40;99.90;;;;;;4999092;28;20049;-54
2021/01/27 13:15:02;;;;;;;4.03;2.55;;;2.30;99.90;;;;;;5005168;28;20523;-52
2021/01/27 13:17:28;;;;;;;5.40;2.78;;;2.30;99.90;;;;;;5004774;28;20061;-53
2021/01/27 13:19:53;;;;;;;2.75;1.70;;;2.30;99.90;;;;;;4999698;28;20034;-52
2021/01/27 13:22:19;;;;;;;3.97;1.50;;;2.40;99.90;;;;;;5005543;28;20155;-58